Time;durP1;ratioP1;P1;durP2;ratioP2;P2;SDS_P1;SDS_P2;PMS_P1;PMS_P2;Temp;Humidity;BMP_temperature;BMP_pressure;BME280_temperature;BME280_humidity;BME280_pressure;Samples;Min_cycle;Max_cycle;Signal;HPM_P1;HPM_P2
2020/12/18 00:00:30;;;;;;;13.00;10.37;;;;;;;3.41;100.00;99552.75;5014231;28;20245;-83
2020/12/18 00:02:57;;;;;;;10.80;8.47;;;;;;;3.48;100.00;99541.22;5015306;28;20669;-83
2020/12/18 00:05:25;;;;;;;11.40;9.40;;;;;;;3.43;100.00;99546.56;5013465;28;20228;-83
2020/12/18 00:07:53;;;;;;;12.33;11.10;;;;;;;3.52;100.00;99548.03;5014988;28;20270;-83
2020/12/18 00:10:20;;;;;;;12.97;11.60;;;;;;;3.19;100.00;99541.22;5013564;28;20754;-82
2020/12/18 00:12:47;;;;;;;13.63;11.27;;;;;;;3.28;100.00;99541.81;5014715;28;20203;-83
2020/12/18 00:15:14;;;;;;;10.97;8.73;;;;;;;3.29;100.00;99546.13;5014592;28;20227;-83
2020/12/18 00:17:41;;;;;;;9.40;8.50;;;;;;;3.26;100.00;99543.59;5014779;28;20701;-83
2020/12/18 00:20:09;;;;;;;10.20;8.43;;;;;;;3.25;100.00;99547.13;5013961;28;20206;-84
2020/12/18 00:22:37;;;;;;;14.33;11.43;;;;;;;3.28;100.00;99547.03;5014535;28;20217;-84
2020/12/18 00:25:04;;;;;;;13.27;11.87;;;;;;;3.25;100.00;99549.75;5014708;28;20200;-84
2020/12/18 00:27:31;;;;;;;13.17;10.17;;;;;;;3.19;100.00;99554.28;5013700;28;20280;-84
2020/12/18 00:29:58;;;;;;;14.00;12.47;;;;;;;3.16;100.00;99556.97;5014134;28;20202;-83
2020/12/18 00:32:25;;;;;;;16.37;11.83;;;;;;;2.99;100.00;99559.22;5015103;28;20198;-82
2020/12/18 00:34:52;;;;;;;11.83;10.50;;;;;;;3.22;100.00;99552.44;5014148;28;20203;-83
2020/12/18 00:37:20;;;;;;;12.60;10.03;;;;;;;3.36;100.00;99560.72;5014186;28;20272;-83
2020/12/18 00:39:48;;;;;;;15.47;12.97;;;;;;;3.18;100.00;99557.78;5014641;28;20199;-83
2020/12/18 00:42:15;;;;;;;12.37;11.13;;;;;;;3.19;100.00;99562.97;5012810;28;20233;-83
2020/12/18 00:44:42;;;;;;;13.40;10.10;;;;;;;3.06;100.00;99558.16;5013523;28;20579;-82
2020/12/18 00:47:09;;;;;;;10.77;9.30;;;;;;;3.02;100.00;99548.69;5014241;28;20307;-83
2020/12/18 00:49:36;;;;;;;9.50;8.50;;;;;;;3.22;100.00;99551.56;5013996;28;20556;-83
2020/12/18 00:52:03;;;;;;;11.03;8.53;;;;;;;3.14;100.00;99554.41;5029807;28;20715;-83
2020/12/18 00:54:30;;;;;;;13.07;11.10;;;;;;;3.19;100.00;99551.66;5014132;28;20278;-83
2020/12/18 00:56:58;;;;;;;14.37;11.00;;;;;;;3.27;100.00;99560.13;5012972;28;20189;-83
2020/12/18 00:59:25;;;;;;;11.70;9.33;;;;;;;3.15;100.00;99568.31;5014238;28;20205;-83
2020/12/18 01:01:57;;;;;;;11.73;9.60;;;;;;;3.27;100.00;99565.34;5011959;28;20234;-83
2020/12/18 01:04:24;;;;;;;9.23;8.23;;;;;;;3.29;100.00;99571.38;5012464;28;20202;-83
2020/12/18 01:06:53;;;;;;;12.87;9.60;;;;;;;3.28;100.00;99567.06;5029301;28;20230;-83
2020/12/18 01:09:20;;;;;;;13.23;10.90;;;;;;;2.99;100.00;99570.50;5012716;28;20208;-83
2020/12/18 01:11:49;;;;;;;14.20;12.70;;;;;;;2.30;100.00;99568.03;5012227;28;20206;-83
2020/12/18 01:14:17;;;;;;;15.80;11.77;;;;;;;2.06;100.00;99568.63;5012729;28;20193;-83
2020/12/18 01:16:53;;;;;;;13.83;10.47;;;;;;;2.29;100.00;99577.63;5012158;28;20824;-83
2020/12/18 01:19:22;;;;;;;14.73;11.43;;;;;;;2.40;100.00;99587.78;5012328;28;20206;-83
2020/12/18 01:21:50;;;;;;;15.97;13.40;;;;;;;2.34;100.00;99591.38;5029242;28;20204;-84
2020/12/18 01:24:21;;;;;;;13.53;11.97;;;;;;;2.23;100.00;99584.72;5012526;28;20242;-84
2020/12/18 01:26:53;;;;;;;15.17;12.73;;;;;;;2.23;100.00;99602.97;5012288;28;20201;-83
2020/12/18 01:29:22;;;;;;;15.43;13.77;;;;;;;2.14;100.00;99597.97;5028197;28;20200;-83
2020/12/18 01:31:54;;;;;;;18.57;14.70;;;;;;;2.21;100.00;99605.63;5009984;28;20189;-83
2020/12/18 01:34:22;;;;;;;17.87;14.43;;;;;;;2.20;100.00;99608.25;5012261;28;20200;-83
2020/12/18 01:36:50;;;;;;;11.43;10.20;;;;;;;2.42;100.00;99599.00;5012160;28;20208;-81
2020/12/18 01:39:28;;;;;;;11.83;10.13;;;;;;;2.72;100.00;99603.41;5011850;28;20199;-82
2020/12/18 01:41:57;;;;;;;12.03;9.93;;;;;;;2.82;100.00;99599.69;5028664;28;20228;-83
2020/12/18 01:44:26;;;;;;;10.20;9.13;;;;;;;2.87;100.00;99591.72;5012375;28;20193;-83
2020/12/18 01:46:56;;;;;;;12.43;8.53;;;;;;;2.87;100.00;99596.94;5012043;28;20184;-83
2020/12/18 01:49:24;;;;;;;12.60;9.63;;;;;;;2.86;100.00;99596.09;5010556;28;20283;-83
2020/12/18 01:51:54;;;;;;;8.93;8.03;;;;;;;2.88;100.00;99588.22;5012161;28;20219;-83
2020/12/18 01:54:47;;;;;;;15.27;12.47;;;;;;;2.47;100.00;99585.88;5040334;28;20202;-83
2020/12/18 01:57:15;;;;;;;17.47;13.03;;;;;;;2.08;100.00;99598.13;5019848;28;20201;-83
2020/12/18 01:59:55;;;;;;;16.87;13.30;;;;;;;2.00;100.00;99595.72;5028029;28;20216;-84
2020/12/18 02:02:58;;;;;;;16.80;13.10;;;;;;;2.13;100.00;99596.28;5010466;28;20220;-84
2020/12/18 02:06:04;;;;;;;14.37;11.23;;;;;;;2.11;100.00;99592.84;4998028;28;20329;-84
2020/12/18 02:08:44;;;;;;;17.10;11.77;;;;;;;2.01;100.00;99587.00;5011736;28;20193;-84
2020/12/18 02:11:23;;;;;;;15.23;11.00;;;;;;;2.14;100.00;99588.41;5013023;28;20250;-83
2020/12/18 02:13:55;;;;;;;14.60;11.07;;;;;;;2.04;100.00;99586.06;5011712;28;20211;-84
2020/12/18 02:16:28;;;;;;;10.93;8.50;;;;;;;2.28;100.00;99583.72;5024818;28;20197;-84
2020/12/18 02:19:01;;;;;;;14.90;10.00;;;;;;;2.45;100.00;99577.19;5008084;28;20195;-84
2020/12/18 02:21:35;;;;;;;17.83;13.17;;;;;;;1.93;100.00;99582.88;5027978;28;20199;-85
2020/12/18 02:24:04;;;;;;;11.87;9.97;;;;;;;2.18;100.00;99582.25;5016095;28;20250;-84
2020/12/18 02:26:32;;;;;;;15.83;12.23;;;;;;;2.04;100.00;99580.84;5031625;28;20214;-83
2020/12/18 02:29:00;;;;;;;13.90;10.67;;;;;;;2.00;100.00;99579.22;5029449;28;20214;-85
2020/12/18 02:31:35;;;;;;;13.53;10.90;;;;;;;1.88;100.00;99579.53;5026271;28;20202;-81
2020/12/18 02:34:23;;;;;;;14.73;11.07;;;;;;;2.12;100.00;99578.91;5015886;28;20212;-83
2020/12/18 02:36:53;;;;;;;15.50;12.60;;;;;;;2.04;100.00;99570.44;4999335;28;20630;-84
2020/12/18 02:39:20;;;;;;;14.63;10.90;;;;;;;1.82;100.00;99569.22;5016720;28;20222;-83
2020/12/18 02:41:55;;;;;;;12.43;9.50;;;;;;;1.90;100.00;99568.16;5014947;28;20206;-81
2020/12/18 02:44:48;;;;;;;10.30;8.07;;;;;;;2.01;100.00;99560.06;5012497;28;20207;-84
2020/12/18 02:47:44;;;;;;;12.67;9.27;;;;;;;2.09;100.00;99565.94;5006074;28;20219;-82
2020/12/18 02:50:24;;;;;;;13.73;10.77;;;;;;;1.56;100.00;99562.00;5031972;28;20182;-84
2020/12/18 02:52:55;;;;;;;14.47;11.00;;;;;;;1.73;100.00;99570.31;5010767;28;20199;-84
2020/12/18 02:55:43;;;;;;;14.37;10.87;;;;;;;1.55;100.00;99568.97;5014858;28;20551;-83
2020/12/18 02:58:34;;;;;;;9.73;8.27;;;;;;;1.97;100.00;99576.66;5007998;28;20719;-84
2020/12/18 03:01:02;;;;;;;10.17;8.00;;;;;;;2.18;100.00;99569.19;5031713;28;20234;-84
2020/12/18 03:03:30;;;;;;;10.60;7.87;;;;;;;2.22;100.00;99569.97;5012579;28;20321;-84
2020/12/18 03:06:17;;;;;;;12.90;10.90;;;;;;;2.31;100.00;99569.72;5012791;28;20239;-84
2020/12/18 03:08:50;;;;;;;14.47;11.17;;;;;;;2.20;100.00;99567.41;5015392;28;20176;-84
2020/12/18 03:11:17;;;;;;;10.50;8.67;;;;;;;2.27;100.00;99578.56;5014275;28;20199;-84
2020/12/18 03:13:47;;;;;;;13.20;8.93;;;;;;;2.43;100.00;99574.66;5005718;28;20196;-82
2020/12/18 03:16:16;;;;;;;9.63;8.23;;;;;;;2.53;100.00;99573.50;5014418;28;20211;-83
2020/12/18 03:19:15;;;;;;;11.97;10.43;;;;;;;2.47;100.00;99571.03;5001724;28;20290;-82
2020/12/18 03:21:43;;;;;;;11.87;9.87;;;;;;;2.53;100.00;99568.28;5031143;28;20273;-84
2020/12/18 03:24:26;;;;;;;14.37;11.70;;;;;;;2.56;100.00;99570.81;5014754;28;20199;-81
2020/12/18 03:27:12;;;;;;;10.13;8.80;;;;;;;2.66;100.00;99572.31;5015546;28;20196;-82
2020/12/18 03:29:48;;;;;;;12.50;11.03;;;;;;;2.77;100.00;99572.88;5010915;28;20585;-81
2020/12/18 03:32:18;;;;;;;12.07;10.80;;;;;;;2.83;100.00;99570.09;5030765;28;20649;-82
2020/12/18 03:34:57;;;;;;;12.23;9.60;;;;;;;2.85;100.00;99572.66;5012831;28;20290;-82
2020/12/18 03:37:28;;;;;;;11.97;9.53;;;;;;;2.92;100.00;99564.59;5013948;28;20688;-80
2020/12/18 03:39:56;;;;;;;12.23;10.00;;;;;;;3.01;100.00;99565.22;5002108;28;20200;-82
2020/12/18 03:42:30;;;;;;;13.73;11.50;;;;;;;2.82;100.00;99562.28;5014448;28;20337;-84
2020/12/18 03:44:59;;;;;;;13.20;11.77;;;;;;;2.75;100.00;99566.81;5014235;28;20196;-84
2020/12/18 03:48:01;;;;;;;15.67;12.23;;;;;;;2.55;100.00;99563.91;4994056;28;20199;-82
2020/12/18 03:50:42;;;;;;;14.30;12.57;;;;;;;2.38;100.00;99558.28;5030617;28;20211;-81
2020/12/18 03:53:20;;;;;;;13.20;10.30;;;;;;;2.52;100.00;99563.97;5030641;28;20195;-83
2020/12/18 03:55:57;;;;;;;17.27;14.67;;;;;;;2.57;100.00;99566.47;5014694;28;20255;-82
2020/12/18 03:58:59;;;;;;;14.13;12.57;;;;;;;2.61;100.00;99574.16;5008931;28;20207;-82
2020/12/18 04:01:53;;;;;;;10.40;9.10;;;;;;;2.78;100.00;99571.09;5010186;28;20199;-76
2020/12/18 04:04:22;;;;;;;14.50;11.70;;;;;;;2.91;100.00;99562.03;5012353;28;20696;-76
2020/12/18 04:06:51;;;;;;;14.43;12.60;;;;;;;2.83;100.00;99558.78;5012966;28;20246;-74
2020/12/18 04:09:18;;;;;;;12.73;11.30;;;;;;;2.96;100.00;99554.06;5029290;28;20196;-81
2020/12/18 04:11:55;;;;;;;14.70;12.50;;;;;;;2.91;100.00;99547.25;5025033;28;20708;-83
2020/12/18 04:14:31;;;;;;;14.47;12.73;;;;;;;2.86;100.00;99528.22;5005390;28;20191;-84
2020/12/18 04:17:10;;;;;;;14.87;12.80;;;;;;;2.91;100.00;99526.38;5027840;28;20849;-79
2020/12/18 04:19:38;;;;;;;12.63;11.17;;;;;;;2.92;100.00;99532.41;5003917;28;20219;-77
2020/12/18 04:22:05;;;;;;;15.27;13.00;;;;;;;2.88;100.00;99526.44;5005015;28;20208;-80
2020/12/18 04:24:50;;;;;;;13.90;11.43;;;;;;;3.05;100.00;99527.72;5012078;28;20192;-82
2020/12/18 04:27:19;;;;;;;18.47;13.43;;;;;;;3.03;100.00;99519.06;5013186;28;20277;-81
2020/12/18 04:29:47;;;;;;;15.20;13.60;;;;;;;3.23;100.00;99516.75;5013115;28;20218;-81
2020/12/18 04:32:19;;;;;;;17.70;14.37;;;;;;;3.21;100.00;99524.59;4996592;28;20662;-80
2020/12/18 04:34:47;;;;;;;18.23;14.90;;;;;;;3.26;100.00;99527.06;4996494;28;20261;-82
2020/12/18 04:37:31;;;;;;;17.37;15.00;;;;;;;3.19;100.00;99528.16;5013012;28;20191;-79
2020/12/18 04:40:13;;;;;;;17.83;15.10;;;;;;;2.92;100.00;99528.06;5013872;28;20199;-78
2020/12/18 04:43:00;;;;;;;18.53;15.20;;;;;;;2.79;100.00;99513.66;4995372;28;20220;-79
2020/12/18 04:45:28;;;;;;;16.23;13.93;;;;;;;2.82;100.00;99523.13;5002694;28;20203;-81
2020/12/18 04:48:01;;;;;;;18.43;14.30;;;;;;;2.80;100.00;99523.19;4992879;28;20294;-83
2020/12/18 04:50:33;;;;;;;17.23;14.97;;;;;;;2.78;100.00;99519.75;5024915;28;20193;-82
2020/12/18 04:53:14;;;;;;;18.47;14.00;;;;;;;2.50;100.00;99512.75;5013635;28;20271;-90
2020/12/18 04:55:58;;;;;;;16.73;14.43;;;;;;;2.40;100.00;99522.56;5026567;28;20205;-80
2020/12/18 04:58:36;;;;;;;16.47;13.33;;;;;;;2.31;100.00;99528.00;5005346;28;20201;-80
2020/12/18 05:01:04;;;;;;;20.03;14.87;;;;;;;2.19;100.00;99525.75;5009005;28;20953;-80
2020/12/18 05:03:52;;;;;;;12.37;11.13;;;;;;;2.30;100.00;99521.09;5008079;28;20230;-80
2020/12/18 05:06:19;;;;;;;17.17;13.53;;;;;;;2.23;100.00;99522.16;5008571;28;21238;-80
2020/12/18 05:08:47;;;;;;;17.87;14.13;;;;;;;2.22;100.00;99533.47;5010039;28;20223;-80
2020/12/18 05:11:18;;;;;;;15.83;13.97;;;;;;;2.11;100.00;99536.34;5038150;28;20263;-81
2020/12/18 05:13:51;;;;;;;17.10;13.03;;;;;;;2.04;100.00;99533.94;5010360;28;20204;-80
2020/12/18 05:16:20;;;;;;;16.63;13.73;;;;;;;2.00;100.00;99535.75;5010792;28;20276;-80
2020/12/18 05:19:06;;;;;;;17.63;13.97;;;;;;;1.94;100.00;99537.69;5008228;28;20205;-79
2020/12/18 05:21:56;;;;;;;13.50;10.90;;;;;;;2.20;100.00;99540.47;4996961;28;20290;-80
2020/12/18 05:24:55;;;;;;;14.43;11.63;;;;;;;1.98;100.00;99534.94;5011164;28;20188;-80
2020/12/18 05:27:24;;;;;;;13.97;11.63;;;;;;;1.94;100.00;99540.28;5010030;28;20200;-80
2020/12/18 05:29:53;;;;;;;13.80;12.10;;;;;;;1.84;100.00;99531.81;5008073;28;20201;-79
2020/12/18 05:32:40;;;;;;;12.73;11.10;;;;;;;1.83;100.00;99529.22;4979339;28;20211;-79
2020/12/18 05:35:18;;;;;;;11.90;10.30;;;;;;;2.12;100.00;99538.06;4995745;28;20230;-80
2020/12/18 05:38:10;;;;;;;16.83;13.00;;;;;;;1.96;100.00;99535.88;5003342;28;20714;-82
2020/12/18 05:41:00;;;;;;;11.33;10.13;;;;;;;2.13;100.00;99534.53;5008040;28;20190;-80
2020/12/18 05:43:41;;;;;;;15.20;12.43;;;;;;;1.93;100.00;99541.16;5011144;28;20297;-80
2020/12/18 05:46:39;;;;;;;11.83;10.57;;;;;;;2.15;100.00;99558.84;4954601;28;20214;-81
2020/12/18 05:49:15;;;;;;;11.83;10.50;;;;;;;1.95;100.00;99555.88;5027529;28;20191;-84
2020/12/18 05:51:57;;;;;;;9.77;8.67;;;;;;;2.09;100.00;99552.91;5027579;28;20190;-82
2020/12/18 05:54:42;;;;;;;10.13;8.40;;;;;;;2.32;100.00;99551.47;4994638;28;20200;-81
2020/12/18 05:57:12;;;;;;;9.70;8.70;;;;;;;2.39;100.00;99551.31;5024581;28;20200;-82
2020/12/18 05:59:47;;;;;;;7.73;6.93;;;;;;;2.46;100.00;99553.72;5027754;28;20200;-78
2020/12/18 06:02:27;;;;;;;9.10;8.03;;;;;;;2.38;100.00;99554.81;5011441;28;20230;-85
2020/12/18 06:05:19;;;;;;;10.87;9.17;;;;;;;2.41;100.00;99560.81;5027028;28;20244;-81
2020/12/18 06:07:59;;;;;;;11.33;8.87;;;;;;;2.36;100.00;99557.44;5011270;28;20211;-80
2020/12/18 06:10:34;;;;;;;11.10;9.73;;;;;;;2.41;100.00;99547.75;5009672;28;20202;-82
2020/12/18 06:13:16;;;;;;;10.53;9.43;;;;;;;2.45;100.00;99549.38;5026733;28;20192;-84
2020/12/18 06:16:06;;;;;;;10.57;9.47;;;;;;;2.50;100.00;99544.06;5010887;28;20249;-80
2020/12/18 06:18:44;;;;;;;9.33;7.83;;;;;;;2.60;100.00;99535.94;4994526;28;20226;-81
2020/12/18 06:21:21;;;;;;;11.90;9.57;;;;;;;2.43;100.00;99537.28;5011602;28;20218;-81
2020/12/18 06:23:54;;;;;;;14.10;11.53;;;;;;;2.08;100.00;99538.16;5000857;28;20219;-81
2020/12/18 06:26:39;;;;;;;11.10;9.90;;;;;;;2.28;100.00;99533.31;5011400;28;20183;-81
2020/12/18 06:29:18;;;;;;;12.10;10.80;;;;;;;2.43;100.00;99537.28;5010803;28;20542;-80
2020/12/18 06:32:22;;;;;;;9.90;8.83;;;;;;;2.60;100.00;99533.31;4992273;28;20942;-86
2020/12/18 06:35:39;;;;;;;8.53;7.20;;;;;;;2.66;100.00;99540.13;4991961;28;20258;-86
2020/12/18 06:38:25;;;;;;;7.93;6.57;;;;;;;2.68;100.00;99539.19;4989963;28;20250;-86
2020/12/18 06:41:21;;;;;;;9.23;7.70;;;;;;;2.58;100.00;99540.34;4997627;28;20672;-86
2020/12/18 06:44:32;;;;;;;12.23;10.73;;;;;;;2.52;100.00;99553.56;5002143;28;20234;-86
2020/12/18 06:47:29;;;;;;;13.07;11.63;;;;;;;2.02;100.00;99547.00;5000927;28;20234;-85
2020/12/18 06:50:16;;;;;;;12.97;11.10;;;;;;;1.99;100.00;99546.25;5023522;28;20195;-85
2020/12/18 06:53:14;;;;;;;12.63;11.23;;;;;;;2.04;100.00;99541.75;5007185;28;20199;-81
2020/12/18 06:56:28;;;;;;;12.20;10.90;;;;;;;2.23;100.00;99535.19;4994362;28;20495;-84
2020/12/18 06:59:21;;;;;;;11.97;10.13;;;;;;;2.43;100.00;99532.91;4998781;28;20219;-85
2020/12/18 07:01:49;;;;;;;11.73;9.53;;;;;;;2.49;100.00;99527.53;5019922;28;20233;-85
2020/12/18 07:04:20;;;;;;;13.10;11.20;;;;;;;2.32;100.00;99530.59;5005614;28;20223;-86
2020/12/18 07:06:47;;;;;;;17.20;12.43;;;;;;;2.02;100.00;99538.34;5027471;28;20199;-86
2020/12/18 07:09:17;;;;;;;11.27;9.40;;;;;;;2.31;100.00;99541.06;5013036;28;20207;-86
2020/12/18 07:11:47;;;;;;;12.53;11.20;;;;;;;2.33;100.00;99541.84;5011075;28;20203;-85
2020/12/18 07:14:16;;;;;;;14.73;12.23;;;;;;;1.94;100.00;99545.50;5028249;28;20258;-86
2020/12/18 07:16:56;;;;;;;13.47;12.07;;;;;;;2.12;100.00;99548.50;5047865;28;20217;-86
2020/12/18 07:19:27;;;;;;;17.53;13.53;;;;;;;2.27;100.00;99532.44;5013593;28;20293;-87
2020/12/18 07:22:13;;;;;;;16.53;13.30;;;;;;;2.47;100.00;99537.13;5013783;28;20196;-83
2020/12/18 07:24:40;;;;;;;17.47;13.97;;;;;;;2.67;100.00;99537.47;5015509;28;20226;-86
2020/12/18 07:27:09;;;;;;;17.30;14.13;;;;;;;2.74;100.00;99532.94;5033558;28;20223;-86
2020/12/18 07:29:36;;;;;;;17.77;14.97;;;;;;;2.86;100.00;99538.66;5019432;28;20295;-87
2020/12/18 07:32:03;;;;;;;22.10;15.47;;;;;;;3.02;100.00;99538.25;5011022;28;20277;-88
2020/12/18 07:34:31;;;;;;;15.37;12.77;;;;;;;3.09;100.00;99542.41;5019019;28;20231;-86
2020/12/18 07:37:10;;;;;;;20.07;15.13;;;;;;;2.92;100.00;99533.28;5019008;28;20204;-86
2020/12/18 07:39:37;;;;;;;18.67;15.13;;;;;;;2.76;100.00;99537.22;5013081;28;20201;-85
2020/12/18 07:42:05;;;;;;;19.00;14.70;;;;;;;2.70;100.00;99545.22;5028579;28;20210;-87
2020/12/18 07:44:34;;;;;;;17.33;14.47;;;;;;;2.94;100.00;99546.28;5010720;28;20221;-85
2020/12/18 07:47:03;;;;;;;12.50;10.77;;;;;;;3.12;100.00;99547.50;5014411;28;20210;-85
2020/12/18 07:49:30;;;;;;;17.37;14.93;;;;;;;2.79;100.00;99539.75;5010953;28;20243;-85
2020/12/18 07:52:03;;;;;;;11.93;10.73;;;;;;;2.89;100.00;99546.41;5041196;28;20225;-86
2020/12/18 07:54:30;;;;;;;17.73;13.90;;;;;;;2.87;100.00;99547.34;5012408;28;20192;-86
2020/12/18 07:57:08;;;;;;;16.93;13.00;;;;;;;2.67;100.00;99542.69;5030973;28;20605;-86
2020/12/18 07:59:36;;;;;;;16.13;13.87;;;;;;;2.63;100.00;99535.00;5008218;28;20274;-85
2020/12/18 08:02:03;;;;;;;15.17;13.40;;;;;;;2.70;100.00;99534.78;5012614;28;20227;-86
2020/12/18 08:04:30;;;;;;;12.63;11.10;;;;;;;2.98;100.00;99539.22;5011158;28;20240;-86
2020/12/18 08:06:59;;;;;;;17.00;13.37;;;;;;;3.12;100.00;99537.06;5011850;28;20660;-85
2020/12/18 08:09:26;;;;;;;15.63;11.90;;;;;;;3.04;100.00;99536.44;5012706;28;20295;-86
2020/12/18 08:11:56;;;;;;;10.63;9.63;;;;;;;3.06;100.00;99529.44;5012272;28;20205;-86
2020/12/18 08:14:23;;;;;;;14.37;12.60;;;;;;;3.07;100.00;99533.72;5013968;28;20239;-85
2020/12/18 08:16:51;;;;;;;15.73;13.20;;;;;;;3.03;100.00;99539.97;5027916;28;20284;-88
2020/12/18 08:19:18;;;;;;;13.03;11.70;;;;;;;3.19;100.00;99551.66;5011480;28;20227;-85
2020/12/18 08:21:46;;;;;;;12.27;11.03;;;;;;;3.37;100.00;99544.13;5010952;28;20209;-83
2020/12/18 08:24:27;;;;;;;13.93;12.43;;;;;;;3.25;100.00;99541.03;5030820;28;20239;-84
2020/12/18 08:26:59;;;;;;;17.77;14.50;;;;;;;3.02;100.00;99538.25;5026523;28;20218;-84
2020/12/18 08:29:31;;;;;;;11.30;10.10;;;;;;;3.39;100.00;99549.31;5030143;28;20384;-83
2020/12/18 08:32:02;;;;;;;12.53;11.33;;;;;;;3.61;100.00;99539.94;5022639;28;20207;-85
2020/12/18 08:34:32;;;;;;;14.17;12.30;;;;;;;3.64;100.00;99544.19;5020930;28;20207;-84
2020/12/18 08:36:59;;;;;;;16.33;12.37;;;;;;;3.63;100.00;99547.69;5041600;28;20203;-84
2020/12/18 08:39:29;;;;;;;15.77;14.17;;;;;;;3.80;100.00;99540.19;5015488;28;20211;-85
2020/12/18 08:41:56;;;;;;;17.30;13.37;;;;;;;3.63;100.00;99532.88;5012682;28;20203;-84
2020/12/18 08:44:25;;;;;;;14.43;13.00;;;;;;;3.82;100.00;99535.75;5012603;28;20289;-85
2020/12/18 08:46:52;;;;;;;15.83;14.13;;;;;;;4.01;100.00;99537.72;5012864;28;20206;-84
2020/12/18 08:49:23;;;;;;;15.80;13.53;;;;;;;4.21;100.00;99542.31;5010595;28;20691;-84
2020/12/18 08:51:52;;;;;;;12.20;10.50;;;;;;;4.39;100.00;99538.22;4994664;28;20726;-82
2020/12/18 08:54:28;;;;;;;14.00;12.60;;;;;;;4.45;100.00;99545.88;5024779;28;20664;-84
2020/12/18 08:57:23;;;;;;;13.57;12.07;;;;;;;4.52;100.00;99548.22;5011791;28;20266;-82
2020/12/18 08:59:59;;;;;;;11.90;10.70;;;;;;;4.65;100.00;99553.88;5003030;28;20264;-84
2020/12/18 09:02:27;;;;;;;15.10;13.60;;;;;;;4.52;100.00;99542.16;5039564;28;21059;-84
2020/12/18 09:05:21;;;;;;;15.87;13.00;;;;;;;4.46;100.00;99539.75;5010053;28;20245;-85
2020/12/18 09:07:51;;;;;;;11.07;9.97;;;;;;;4.64;100.00;99536.47;5014706;28;20203;-83
2020/12/18 09:10:39;;;;;;;17.07;14.97;;;;;;;4.61;100.00;99536.56;5029137;28;20202;-85
2020/12/18 09:13:14;;;;;;;16.90;14.90;;;;;;;4.56;100.00;99541.97;5011934;28;20200;-84
2020/12/18 09:15:43;;;;;;;15.13;13.53;;;;;;;4.80;100.00;99535.00;5014889;28;20230;-85
2020/12/18 09:18:12;;;;;;;15.33;13.83;;;;;;;5.00;100.00;99535.16;5010671;28;20728;-84
2020/12/18 09:20:43;;;;;;;12.73;11.40;;;;;;;5.20;100.00;99532.66;4999025;28;20218;-84
2020/12/18 09:23:12;;;;;;;12.63;11.13;;;;;;;5.26;100.00;99535.03;5006128;28;20206;-84
2020/12/18 09:25:41;;;;;;;18.47;14.77;;;;;;;5.43;100.00;99542.25;5021664;28;20211;-84
2020/12/18 09:28:13;;;;;;;16.70;13.53;;;;;;;5.38;100.00;99536.34;4987689;28;20292;-83
2020/12/18 09:30:47;;;;;;;17.63;14.70;;;;;;;5.26;100.00;99531.56;5007296;28;20226;-85
2020/12/18 09:33:18;;;;;;;16.13;13.67;;;;;;;5.34;100.00;99526.03;5028628;28;20234;-83
2020/12/18 09:35:46;;;;;;;22.13;15.17;;;;;;;5.55;100.00;99533.06;5010525;28;20251;-84
2020/12/18 09:38:13;;;;;;;15.87;14.27;;;;;;;6.15;100.00;99525.38;5010645;28;20284;-82
2020/12/18 09:40:40;;;;;;;15.80;14.20;;;;;;;6.38;100.00;99532.31;5011668;28;20216;-84
2020/12/18 09:43:07;;;;;;;16.73;13.97;;;;;;;6.50;100.00;99530.94;5020972;28;20206;-85
2020/12/18 09:45:44;;;;;;;14.93;12.83;;;;;;;6.78;100.00;99523.56;5010734;28;20208;-83
2020/12/18 09:48:11;;;;;;;14.17;12.57;;;;;;;6.78;100.00;99531.44;5009431;28;20194;-84
2020/12/18 09:50:39;;;;;;;15.03;13.37;;;;;;;6.61;100.00;99518.19;5012734;28;20202;-81
2020/12/18 09:53:07;;;;;;;14.60;11.80;;;;;;;7.17;100.00;99519.16;5010107;28;20768;-85
2020/12/18 09:55:36;;;;;;;12.43;10.87;;;;;;;7.63;100.00;99522.28;5017808;28;20400;-83
2020/12/18 09:58:04;;;;;;;13.30;12.00;;;;;;;7.25;99.24;99522.28;5026052;28;20234;-83
2020/12/18 10:00:32;;;;;;;14.60;12.43;;;;;;;7.09;100.00;99521.28;5016180;28;20334;-84
2020/12/18 10:03:00;;;;;;;15.90;12.00;;;;;;;6.47;100.00;99516.16;5003150;28;20224;-84
2020/12/18 10:05:27;;;;;;;16.87;12.67;;;;;;;6.59;100.00;99520.91;5012891;28;20236;-83
2020/12/18 10:07:54;;;;;;;15.40;13.03;;;;;;;6.59;100.00;99515.66;5026331;28;20198;-84
2020/12/18 10:10:22;;;;;;;15.33;11.60;;;;;;;6.93;100.00;99521.09;5027334;28;20594;-82
2020/12/18 10:12:50;;;;;;;13.50;12.27;;;;;;;6.94;100.00;99514.06;5012962;28;20201;-86
2020/12/18 10:15:17;;;;;;;14.00;12.60;;;;;;;7.26;100.00;99507.38;5009544;28;20643;-86
2020/12/18 10:17:44;;;;;;;15.73;11.60;;;;;;;7.69;100.00;99506.22;5022609;28;20652;-86
2020/12/18 10:20:11;;;;;;;13.23;11.83;;;;;;;7.92;99.49;99508.56;5013600;28;20283;-85
2020/12/18 10:22:38;;;;;;;13.17;11.90;;;;;;;8.07;97.08;99508.69;5010208;28;20228;-83
2020/12/18 10:25:07;;;;;;;13.50;11.70;;;;;;;8.31;96.17;99509.25;5012314;28;20243;-86
2020/12/18 10:27:36;;;;;;;10.60;9.60;;;;;;;8.50;96.20;99503.94;5010018;28;20200;-85
2020/12/18 10:30:05;;;;;;;13.10;11.03;;;;;;;8.93;93.74;99499.88;5011044;28;20642;-85
2020/12/18 10:32:33;;;;;;;10.13;9.10;;;;;;;8.94;93.20;99499.81;5008363;28;20286;-86
2020/12/18 10:35:00;;;;;;;15.40;12.40;;;;;;;8.84;92.39;99489.84;5011062;28;20200;-85
2020/12/18 10:37:28;;;;;;;13.13;11.67;;;;;;;8.91;92.42;99491.22;5012287;28;20206;-85
2020/12/18 10:39:55;;;;;;;12.87;11.40;;;;;;;8.54;94.35;99492.28;5009755;28;20223;-85
2020/12/18 10:42:22;;;;;;;14.60;11.70;;;;;;;8.70;92.77;99486.13;5008916;28;20201;-86
2020/12/18 10:44:50;;;;;;;32.83;12.23;;;;;;;8.85;95.17;99483.63;5014827;28;20583;-85
2020/12/18 10:47:17;;;;;;;11.50;10.43;;;;;;;9.10;90.98;99476.13;5007421;28;20255;-86
2020/12/18 10:49:45;;;;;;;11.87;10.67;;;;;;;9.49;89.97;99479.22;5012530;28;20292;-87
2020/12/18 10:52:12;;;;;;;12.70;10.80;;;;;;;9.35;90.17;99475.66;5010615;28;20252;-85
2020/12/18 10:54:39;;;;;;;14.53;10.70;;;;;;;9.70;89.86;99466.59;5015412;28;20192;-85
2020/12/18 10:57:08;;;;;;;13.50;10.53;;;;;;;9.58;87.97;99465.50;5014021;28;20544;-86
2020/12/18 10:59:36;;;;;;;13.93;11.10;;;;;;;9.66;89.32;99473.84;5013541;28;20198;-86
2020/12/18 11:02:04;;;;;;;11.93;10.33;;;;;;;9.57;88.43;99455.88;5011727;28;20202;-84
2020/12/18 11:04:31;;;;;;;12.13;10.93;;;;;;;9.93;86.33;99458.25;5016712;28;20226;-83
2020/12/18 11:06:58;;;;;;;14.07;11.03;;;;;;;9.94;85.22;99452.00;5005816;28;20210;-83
2020/12/18 11:09:26;;;;;;;11.57;10.40;;;;;;;10.05;86.54;99456.69;5011601;28;20238;-78
2020/12/18 11:11:55;;;;;;;11.07;9.97;;;;;;;10.25;84.94;99446.66;5003819;28;20667;-83
2020/12/18 11:14:22;;;;;;;11.63;10.43;;;;;;;10.32;84.69;99444.50;4998128;28;20209;-82
2020/12/18 11:16:53;;;;;;;12.63;11.03;;;;;;;10.31;84.15;99440.16;5014445;28;20734;-81
2020/12/18 11:19:21;;;;;;;13.53;10.87;;;;;;;10.29;85.79;99436.78;5019209;28;20200;-81
2020/12/18 11:21:48;;;;;;;10.80;9.43;;;;;;;10.85;84.76;99428.91;5004096;28;20187;-81
2020/12/18 11:24:15;;;;;;;11.17;10.00;;;;;;;10.35;83.96;99429.34;5011402;28;20619;-82
2020/12/18 11:26:43;;;;;;;11.37;10.27;;;;;;;10.32;83.37;99423.38;5013211;28;20208;-83
2020/12/18 11:29:14;;;;;;;12.53;10.33;;;;;;;10.54;82.90;99425.56;5012655;28;20257;-83
2020/12/18 11:31:43;;;;;;;11.27;10.07;;;;;;;10.46;84.84;99415.47;5012712;28;20219;-82
2020/12/18 11:34:16;;;;;;;12.43;9.33;;;;;;;11.06;82.52;99419.63;5009590;28;20298;-83
2020/12/18 11:36:50;;;;;;;11.47;9.87;;;;;;;11.34;81.59;99420.53;5000071;28;20211;-83
2020/12/18 11:39:21;;;;;;;11.27;10.10;;;;;;;11.08;82.22;99416.88;4996572;28;20611;-82
2020/12/18 11:41:54;;;;;;;11.57;10.37;;;;;;;10.99;82.59;99417.47;5009086;28;20203;-84
2020/12/18 11:44:24;;;;;;;10.67;9.67;;;;;;;11.14;83.80;99408.56;4996747;28;20230;-86
2020/12/18 11:46:53;;;;;;;9.63;8.73;;;;;;;11.69;82.01;99412.94;4998778;28;20211;-86
2020/12/18 11:49:22;;;;;;;10.90;8.90;;;;;;;11.63;81.23;99408.88;5002770;28;20189;-89